Time;durP1;ratioP1;P1;durP2;ratioP2;P2;SDS_P1;SDS_P2;PMS_P1;PMS_P2;Temp;Humidity;BMP_temperature;BMP_pressure;BME280_temperature;BME280_humidity;BME280_pressure;Samples;Min_cycle;Max_cycle;Signal;HPM_P1;HPM_P2
2021/08/28 00:01:14;;;;;;;7.18;5.28;;;;;;;;;;5032752;28;20076;-49
2021/08/28 00:03:42;;;;;;;7.90;5.38;;;;;;;;;;5031141;28;20076;-50
2021/08/28 00:06:08;;;;;;;7.97;4.97;;;;;;;;;;5031002;28;20041;-50
2021/08/28 00:08:35;;;;;;;8.13;5.75;;;;;;;;;;5030858;28;20037;-48
2021/08/28 00:11:02;;;;;;;8.57;5.88;;;;;;;;;;5031268;28;20483;-50
2021/08/28 00:13:28;;;;;;;7.57;5.53;;;;;;;;;;5032493;28;20108;-49
2021/08/28 00:15:55;;;;;;;7.88;5.50;;;;;;;;;;5031358;28;20092;-50
2021/08/28 00:18:22;;;;;;;7.57;5.38;;;;;;;;;;5012879;28;20038;-55
2021/08/28 00:20:49;;;;;;;6.07;4.97;;;;;;;;;;5025636;28;20041;-50
2021/08/28 00:23:15;;;;;;;6.40;5.18;;;;;;;;;;5032136;28;20048;-52
2021/08/28 00:25:42;;;;;;;7.45;5.45;;;;;;;;;;5027010;28;20041;-54
2021/08/28 00:28:12;;;;;;;7.40;5.47;;;;;;;;;;5016482;28;20103;-54
2021/08/28 00:30:52;;;;;;;7.13;5.30;;;;;;;;;;5031312;28;20045;-50
2021/08/28 00:33:19;;;;;;;9.48;6.10;;;;;;;;;;5028006;28;20046;-50
2021/08/28 00:35:46;;;;;;;8.10;5.20;;;;;;;;;;5021769;28;20038;-51
2021/08/28 00:38:12;;;;;;;7.28;5.35;;;;;;;;;;5031036;28;20124;-56
2021/08/28 00:40:39;;;;;;;7.80;5.63;;;;;;;;;;5030105;28;20140;-54
2021/08/28 00:43:06;;;;;;;6.18;5.07;;;;;;;;;;5031325;28;20042;-52
2021/08/28 00:45:36;;;;;;;7.00;5.10;;;;;;;;;;5030554;28;20140;-54
2021/08/28 00:48:04;;;;;;;8.23;5.30;;;;;;;;;;5030035;28;20042;-51
2021/08/28 00:50:33;;;;;;;8.75;4.72;;;;;;;;;;5030944;28;20051;-56
2021/08/28 00:53:07;;;;;;;7.18;4.90;;;;;;;;;;5029854;28;20122;-52
2021/08/28 00:55:37;;;;;;;6.30;4.57;;;;;;;;;;5029144;28;20584;-54
2021/08/28 00:58:04;;;;;;;7.13;4.72;;;;;;;;;;5029768;28;20390;-51
2021/08/28 01:00:35;;;;;;;8.20;4.65;;;;;;;;;;5031018;28;20125;-50
2021/08/28 01:03:02;;;;;;;6.65;4.53;;;;;;;;;;5031753;28;20049;-50
2021/08/28 01:05:33;;;;;;;7.18;4.60;;;;;;;;;;5020677;28;20045;-50
2021/08/28 01:08:00;;;;;;;6.88;4.63;;;;;;;;;;5013298;28;20087;-50
2021/08/28 01:11:08;;;;;;;7.10;4.68;;;;;;;;;;5018598;28;21503;-52
2021/08/28 01:13:50;;;;;;;7.10;4.25;;;;;;;;;;5028213;28;20123;-52
2021/08/28 01:16:19;;;;;;;8.65;4.20;;;;;;;;;;5028980;28;20045;-55
2021/08/28 01:18:46;;;;;;;8.48;5.40;;;;;;;;;;5015324;28;20081;-53
2021/08/28 01:21:34;;;;;;;7.75;5.20;;;;;;;;;;5019964;28;20033;-52
2021/08/28 01:24:19;;;;;;;10.77;5.13;;;;;;;;;;5030191;28;20052;-54
2021/08/28 01:27:15;;;;;;;9.23;5.18;;;;;;;;;;5021956;28;20643;-52
2021/08/28 01:29:42;;;;;;;8.63;4.53;;;;;;;;;;5029765;28;20422;-53
2021/08/28 01:32:10;;;;;;;7.47;4.90;;;;;;;;;;5012858;28;20126;-53
2021/08/28 01:34:38;;;;;;;8.63;4.90;;;;;;;;;;5028932;28;20045;-50
2021/08/28 01:37:09;;;;;;;8.52;5.72;;;;;;;;;;4999913;28;20104;-57
2021/08/28 01:39:59;;;;;;;7.18;5.15;;;;;;;;;;5014177;28;20099;-48
2021/08/28 01:42:32;;;;;;;8.43;5.18;;;;;;;;;;5029249;28;20080;-48
2021/08/28 01:45:01;;;;;;;7.38;5.10;;;;;;;;;;5012077;28;20128;-49
2021/08/28 01:47:30;;;;;;;7.18;4.82;;;;;;;;;;5028907;28;20050;-53
2021/08/28 01:49:58;;;;;;;9.43;5.22;;;;;;;;;;5028428;28;20076;-54
2021/08/28 01:52:24;;;;;;;8.00;5.15;;;;;;;;;;5029389;28;20076;-48
2021/08/28 01:54:53;;;;;;;8.57;5.50;;;;;;;;;;5010857;28;20499;-51
2021/08/28 01:57:26;;;;;;;6.60;4.95;;;;;;;;;;5025743;28;20045;-49
2021/08/28 02:00:11;;;;;;;8.10;5.25;;;;;;;;;;5030364;28;20036;-48
2021/08/28 02:02:43;;;;;;;9.38;5.72;;;;;;;;;;5030413;28;20430;-49
2021/08/28 02:05:12;;;;;;;10.25;5.88;;;;;;;;;;5032229;28;20100;-51
2021/08/28 02:08:04;;;;;;;8.98;5.63;;;;;;;;;;5032633;28;20060;-52
2021/08/28 02:10:37;;;;;;;8.02;5.70;;;;;;;;;;5032309;28;20148;-48
2021/08/28 02:13:06;;;;;;;8.18;5.70;;;;;;;;;;5033621;28;20049;-51
2021/08/28 02:15:34;;;;;;;10.95;6.22;;;;;;;;;;5031947;28;20069;-49
2021/08/28 02:18:17;;;;;;;8.45;5.85;;;;;;;;;;5019905;28;20042;-47
2021/08/28 02:21:01;;;;;;;10.65;5.95;;;;;;;;;;4999258;28;20045;-51
2021/08/28 02:23:36;;;;;;;10.38;6.68;;;;;;;;;;5032636;28;20068;-51
2021/08/28 02:26:19;;;;;;;8.13;6.05;;;;;;;;;;5030883;28;20045;-52
2021/08/28 02:28:50;;;;;;;9.88;6.47;;;;;;;;;;5032006;28;20229;-48
2021/08/28 02:31:18;;;;;;;10.43;6.40;;;;;;;;;;5031963;28;20525;-47
2021/08/28 02:33:50;;;;;;;8.05;5.95;;;;;;;;;;5033660;28;20057;-52
2021/08/28 02:36:18;;;;;;;9.77;6.93;;;;;;;;;;5022542;28;20060;-49
2021/08/28 02:38:46;;;;;;;9.40;6.38;;;;;;;;;;5031733;28;20137;-53
2021/08/28 02:41:14;;;;;;;9.18;6.22;;;;;;;;;;5036907;28;20387;-49
2021/08/28 02:43:42;;;;;;;9.93;6.80;;;;;;;;;;5031748;28;20062;-48
2021/08/28 02:46:11;;;;;;;8.55;5.90;;;;;;;;;;5031209;28;20071;-48
2021/08/28 02:48:38;;;;;;;11.38;7.35;;;;;;;;;;5031089;28;20092;-50
2021/08/28 02:51:07;;;;;;;10.38;6.30;;;;;;;;;;5031696;28;20045;-52
2021/08/28 02:53:37;;;;;;;11.23;6.75;;;;;;;;;;5032020;28;20052;-52
2021/08/28 02:56:04;;;;;;;9.13;7.05;;;;;;;;;;5020438;28;20045;-47
2021/08/28 02:58:33;;;;;;;9.05;7.03;;;;;;;;;;5028787;28;20049;-52
2021/08/28 03:01:02;;;;;;;11.57;6.47;;;;;;;;;;5031723;28;20558;-49
2021/08/28 03:03:29;;;;;;;10.43;7.00;;;;;;;;;;5023487;28;20052;-49
2021/08/28 03:05:57;;;;;;;10.85;6.70;;;;;;;;;;5011338;28;20049;-48
2021/08/28 03:08:28;;;;;;;11.93;7.55;;;;;;;;;;5025042;28;20045;-48
2021/08/28 03:10:55;;;;;;;10.48;7.93;;;;;;;;;;5011939;28;20046;-50
2021/08/28 03:13:22;;;;;;;11.20;7.18;;;;;;;;;;5025581;28;20108;-48
2021/08/28 03:15:51;;;;;;;9.48;6.47;;;;;;;;;;5031003;28;20049;-48
2021/08/28 03:18:19;;;;;;;12.70;7.28;;;;;;;;;;5021433;28;20495;-48
2021/08/28 03:20:48;;;;;;;9.48;6.63;;;;;;;;;;5011722;28;20049;-49
2021/08/28 03:23:19;;;;;;;10.02;7.03;;;;;;;;;;5029959;28;20037;-51
2021/08/28 03:25:48;;;;;;;8.45;6.50;;;;;;;;;;5030032;28;20562;-52
2021/08/28 03:28:17;;;;;;;11.27;6.30;;;;;;;;;;5031856;28;20115;-48
2021/08/28 03:30:46;;;;;;;9.95;6.55;;;;;;;;;;5032597;28;20061;-48
2021/08/28 03:33:15;;;;;;;9.20;6.78;;;;;;;;;;5031166;28;20526;-51
2021/08/28 03:35:46;;;;;;;11.63;7.20;;;;;;;;;;5024956;28;20450;-50
2021/08/28 03:38:13;;;;;;;7.65;5.45;;;;;;;;;;5030993;28;20052;-55
2021/08/28 03:40:40;;;;;;;9.27;6.43;;;;;;;;;;5016791;28;20033;-51
2021/08/28 03:43:08;;;;;;;8.35;5.93;;;;;;;;;;5032184;28;20041;-50
2021/08/28 03:45:35;;;;;;;10.57;6.32;;;;;;;;;;5030803;28;20517;-52
2021/08/28 03:48:03;;;;;;;11.43;6.90;;;;;;;;;;5018978;28;20048;-51
2021/08/28 03:50:33;;;;;;;8.43;6.03;;;;;;;;;;5028829;28;20061;-48
2021/08/28 03:53:01;;;;;;;7.20;5.18;;;;;;;;;;5031010;28;20038;-48
2021/08/28 03:55:28;;;;;;;8.40;6.38;;;;;;;;;;5024039;28;20430;-52
2021/08/28 03:57:56;;;;;;;8.98;5.90;;;;;;;;;;5011137;28;20049;-48
2021/08/28 04:00:23;;;;;;;8.63;6.40;;;;;;;;;;5026504;28;20045;-48
2021/08/28 04:03:01;;;;;;;9.18;6.18;;;;;;;;;;5030772;28;20044;-48
2021/08/28 04:05:30;;;;;;;9.43;6.47;;;;;;;;;;5028949;28;20045;-51
2021/08/28 04:08:09;;;;;;;8.40;6.03;;;;;;;;;;5030588;28;20077;-52
2021/08/28 04:10:43;;;;;;;9.25;6.30;;;;;;;;;;5027813;28;20041;-52
2021/08/28 04:13:12;;;;;;;8.43;5.80;;;;;;;;;;5030316;28;20037;-48
2021/08/28 04:15:40;;;;;;;8.80;6.05;;;;;;;;;;5028717;28;20128;-51
2021/08/28 04:18:18;;;;;;;9.32;6.53;;;;;;;;;;5018579;28;20045;-52
2021/08/28 04:20:51;;;;;;;10.57;5.88;;;;;;;;;;5027863;28;20095;-51
2021/08/28 04:23:33;;;;;;;8.85;5.72;;;;;;;;;;5030414;28;20410;-49
2021/08/28 04:26:28;;;;;;;8.25;5.60;;;;;;;;;;5008342;28;20451;-49
2021/08/28 04:28:56;;;;;;;9.40;5.88;;;;;;;;;;5003975;28;20128;-52
2021/08/28 04:31:24;;;;;;;9.52;6.25;;;;;;;;;;5029350;28;20045;-48
2021/08/28 04:33:52;;;;;;;7.55;5.38;;;;;;;;;;5026427;28;20041;-49
2021/08/28 04:36:19;;;;;;;7.60;5.63;;;;;;;;;;5029325;28;20120;-51
2021/08/28 04:38:47;;;;;;;8.65;5.65;;;;;;;;;;5027281;28;20046;-50
2021/08/28 04:41:14;;;;;;;7.80;5.65;;;;;;;;;;5030084;28;20045;-49
2021/08/28 04:43:41;;;;;;;7.82;5.78;;;;;;;;;;5029968;28;20099;-52
2021/08/28 04:46:28;;;;;;;8.02;5.63;;;;;;;;;;5020255;28;20061;-53
2021/08/28 04:48:58;;;;;;;7.88;5.50;;;;;;;;;;5022858;28;20118;-54
2021/08/28 04:51:53;;;;;;;7.68;5.05;;;;;;;;;;5026635;28;20038;-54
2021/08/28 04:54:20;;;;;;;8.57;5.70;;;;;;;;;;5023573;28;20131;-50
2021/08/28 04:56:50;;;;;;;7.45;5.78;;;;;;;;;;5020749;28;20426;-48
2021/08/28 04:59:16;;;;;;;7.10;5.43;;;;;;;;;;5024672;28;20120;-52
2021/08/28 05:01:46;;;;;;;8.68;5.30;;;;;;;;;;5025989;28;20045;-48
2021/08/28 05:04:25;;;;;;;8.23;5.88;;;;;;;;;;5029258;28;20040;-54
2021/08/28 05:06:53;;;;;;;8.20;5.88;;;;;;;;;;5009068;28;20049;-52
2021/08/28 05:09:25;;;;;;;7.50;5.55;;;;;;;;;;5003341;28;20077;-52
2021/08/28 05:11:52;;;;;;;10.98;6.13;;;;;;;;;;5023082;28;20072;-49
2021/08/28 05:14:22;;;;;;;7.38;5.43;;;;;;;;;;5029080;28;20056;-52
2021/08/28 05:16:50;;;;;;;8.30;6.45;;;;;;;;;;5029202;28;20045;-51
2021/08/28 05:19:37;;;;;;;8.45;5.65;;;;;;;;;;5029123;28;20049;-49
2021/08/28 05:22:17;;;;;;;9.18;5.78;;;;;;;;;;5029370;28;20038;-52
2021/08/28 05:25:04;;;;;;;8.05;5.50;;;;;;;;;;5015964;28;20123;-51
2021/08/28 05:27:31;;;;;;;8.63;6.10;;;;;;;;;;5011852;28;20046;-52
2021/08/28 05:29:58;;;;;;;8.85;6.22;;;;;;;;;;5028137;28;20038;-49
2021/08/28 05:32:25;;;;;;;10.60;5.72;;;;;;;;;;5025043;28;20073;-49
2021/08/28 05:34:54;;;;;;;8.77;6.10;;;;;;;;;;5026649;28;20046;-56
2021/08/28 05:37:44;;;;;;;8.02;5.60;;;;;;;;;;5015689;28;20050;-52
2021/08/28 05:40:20;;;;;;;8.50;5.72;;;;;;;;;;5019396;28;20044;-53
2021/08/28 05:42:47;;;;;;;9.13;6.18;;;;;;;;;;5033192;28;20044;-49
2021/08/28 05:45:14;;;;;;;8.13;5.95;;;;;;;;;;5032066;28;20136;-53
2021/08/28 05:47:42;;;;;;;9.10;5.88;;;;;;;;;;5032865;28;20048;-59
2021/08/28 05:50:12;;;;;;;6.75;5.22;;;;;;;;;;5044216;28;20040;-53
2021/08/28 05:52:39;;;;;;;8.25;6.20;;;;;;;;;;5032713;28;20101;-52
2021/08/28 05:55:10;;;;;;;7.18;5.43;;;;;;;;;;5030627;28;20502;-50
2021/08/28 05:57:38;;;;;;;8.27;5.90;;;;;;;;;;5032052;28;20053;-51
2021/08/28 06:00:05;;;;;;;7.72;4.93;;;;;;;;;;5032631;28;20046;-52
2021/08/28 06:02:40;;;;;;;7.55;4.60;;;;;;;;;;5033895;28;20041;-48
2021/08/28 06:05:17;;;;;;;6.63;4.85;;;;;;;;;;5024986;28;20103;-53
2021/08/28 06:08:09;;;;;;;8.30;5.60;;;;;;;;;;5033793;28;20041;-51
2021/08/28 06:10:54;;;;;;;7.22;4.70;;;;;;;;;;5019476;28;20045;-48
2021/08/28 06:13:43;;;;;;;8.07;5.20;;;;;;;;;;5032640;28;20037;-52
2021/08/28 06:16:15;;;;;;;6.53;4.22;;;;;;;;;;5038174;28;20052;-52
2021/08/28 06:18:42;;;;;;;7.75;5.63;;;;;;;;;;5023934;28;20103;-50
2021/08/28 06:21:09;;;;;;;7.47;5.13;;;;;;;;;;5032857;28;20041;-48
2021/08/28 06:23:36;;;;;;;7.70;4.50;;;;;;;;;;5032549;28;20044;-52
2021/08/28 06:26:21;;;;;;;7.03;4.82;;;;;;;;;;5032934;28;20397;-52
2021/08/28 06:28:48;;;;;;;5.93;4.40;;;;;;;;;;5032555;28;20045;-51
2021/08/28 06:31:15;;;;;;;5.95;4.47;;;;;;;;;;5033300;28;20077;-50
2021/08/28 06:33:42;;;;;;;8.00;4.78;;;;;;;;;;5028204;28;20130;-53
2021/08/28 06:36:08;;;;;;;5.97;4.32;;;;;;;;;;5022823;28;20083;-49
2021/08/28 06:39:05;;;;;;;6.28;4.65;;;;;;;;;;5013469;28;20077;-51
2021/08/28 06:41:51;;;;;;;6.30;4.32;;;;;;;;;;5033442;28;20125;-54
2021/08/28 06:44:37;;;;;;;8.25;4.78;;;;;;;;;;5033244;28;20049;-52
2021/08/28 06:47:22;;;;;;;6.07;4.40;;;;;;;;;;5032986;28;20046;-55
2021/08/28 06:50:15;;;;;;;6.35;4.43;;;;;;;;;;5005522;28;20053;-55
2021/08/28 06:53:00;;;;;;;5.68;4.40;;;;;;;;;;5028863;28;20413;-53
2021/08/28 06:55:56;;;;;;;5.68;4.15;;;;;;;;;;4995748;28;20058;-54
2021/08/28 06:58:41;;;;;;;5.93;4.63;;;;;;;;;;5013340;28;20125;-55
2021/08/28 07:01:25;;;;;;;5.47;3.85;;;;;;;;;;5023831;28;20045;-52
2021/08/28 07:04:11;;;;;;;6.80;4.40;;;;;;;;;;5032534;28;20040;-53
2021/08/28 07:06:58;;;;;;;5.93;4.13;;;;;;;;;;5015150;28;20062;-55
2021/08/28 07:09:27;;;;;;;5.03;3.85;;;;;;;;;;5021955;28;20124;-55
2021/08/28 07:11:53;;;;;;;7.13;4.78;;;;;;;;;;5012007;28;20041;-51
2021/08/28 07:14:21;;;;;;;5.32;4.15;;;;;;;;;;4997106;28;20112;-55
2021/08/28 07:16:48;;;;;;;8.43;4.10;;;;;;;;;;5029863;28;20075;-53
2021/08/28 07:19:15;;;;;;;5.97;4.00;;;;;;;;;;5030822;28;20557;-52
2021/08/28 07:21:41;;;;;;;5.13;3.90;;;;;;;;;;5033395;28;20049;-49
2021/08/28 07:24:09;;;;;;;4.95;3.70;;;;;;;;;;5030987;28;20037;-51
2021/08/28 07:26:41;;;;;;;4.50;3.45;;;;;;;;;;5024967;28;20034;-51
2021/08/28 07:29:30;;;;;;;4.35;3.42;;;;;;;;;;5031278;28;20123;-50
2021/08/28 07:31:57;;;;;;;5.30;3.80;;;;;;;;;;5030126;28;20033;-56
2021/08/28 07:34:23;;;;;;;5.13;3.75;;;;;;;;;;5026708;28;20060;-51
2021/08/28 07:36:50;;;;;;;4.97;3.72;;;;;;;;;;5032396;28;20045;-55
2021/08/28 07:39:17;;;;;;;4.93;3.90;;;;;;;;;;5029826;28;20033;-54
2021/08/28 07:41:44;;;;;;;5.40;3.78;;;;;;;;;;5032383;28;20120;-53
2021/08/28 07:44:11;;;;;;;5.95;3.80;;;;;;;;;;5030978;28;20033;-55
2021/08/28 07:46:39;;;;;;;4.30;3.58;;;;;;;;;;5030000;28;20463;-56
2021/08/28 07:49:29;;;;;;;4.93;3.67;;;;;;;;;;5012865;28;20046;-50
2021/08/28 07:51:56;;;;;;;7.57;4.32;;;;;;;;;;5020394;28;20049;-54
2021/08/28 07:54:23;;;;;;;4.47;3.35;;;;;;;;;;5030454;28;20469;-54
2021/08/28 07:56:51;;;;;;;5.10;3.83;;;;;;;;;;5008753;28;20042;-51
2021/08/28 07:59:18;;;;;;;5.88;4.10;;;;;;;;;;5030335;28;20095;-51
2021/08/28 08:01:45;;;;;;;6.30;4.20;;;;;;;;;;5023008;28;20038;-54
2021/08/28 08:04:12;;;;;;;4.93;4.13;;;;;;;;;;5028133;28;20037;-54
2021/08/28 08:07:01;;;;;;;5.03;4.20;;;;;;;;;;5029172;28;20448;-52
2021/08/28 08:09:48;;;;;;;5.03;4.07;;;;;;;;;;5010379;28;20076;-55
2021/08/28 08:12:33;;;;;;;6.45;4.35;;;;;;;;;;5033011;28;20383;-53
2021/08/28 08:15:21;;;;;;;5.78;4.20;;;;;;;;;;5049542;28;20402;-53
2021/08/28 08:18:11;;;;;;;6.82;4.03;;;;;;;;;;5008046;28;20057;-55
2021/08/28 08:20:58;;;;;;;5.13;4.00;;;;;;;;;;5016475;28;20503;-51
2021/08/28 08:23:43;;;;;;;5.95;3.80;;;;;;;;;;5024439;28;20482;-52
2021/08/28 08:26:33;;;;;;;4.88;4.07;;;;;;;;;;5020200;28;20055;-57
2021/08/28 08:29:18;;;;;;;5.07;3.70;;;;;;;;;;5034430;28;20499;-54
2021/08/28 08:31:59;;;;;;;5.38;3.90;;;;;;;;;;5025301;28;20077;-59
2021/08/28 08:34:33;;;;;;;3.65;3.22;;;;;;;;;;5043314;28;20738;-53
2021/08/28 08:37:01;;;;;;;4.10;3.00;;;;;;;;;;5035469;28;20045;-54
2021/08/28 08:39:28;;;;;;;10.75;6.43;;;;;;;;;;5028446;28;20084;-44
2021/08/28 08:41:55;;;;;;;15.70;9.50;;;;;;;;;;5032655;28;20041;-50
2021/08/28 08:44:23;;;;;;;5.97;4.55;;;;;;;;;;5027034;28;20046;-45
2021/08/28 08:46:51;;;;;;;6.35;2.92;;;;;;;;;;5032037;28;20045;-48
2021/08/28 08:49:19;;;;;;;3.35;2.78;;;;;;;;;;5021574;28;20413;-49
2021/08/28 08:51:47;;;;;;;14.43;7.82;;;;;;;;;;5032920;28;20087;-47
2021/08/28 08:54:14;;;;;;;8.07;5.20;;;;;;;;;;5031437;28;20083;-48
2021/08/28 08:56:41;;;;;;;5.85;4.07;;;;;;;;;;5032215;28;20045;-47
2021/08/28 08:59:07;;;;;;;3.97;2.20;;;;;;;;;;5034971;28;20068;-54
2021/08/28 09:01:36;;;;;;;7.95;3.90;;;;;;;;;;5036493;28;20591;-49
2021/08/28 09:04:29;;;;;;;5.35;3.40;;;;;;;;;;5041245;28;20117;-47
2021/08/28 09:06:56;;;;;;;5.15;3.28;;;;;;;;;;5034460;28;20037;-50
2021/08/28 09:09:23;;;;;;;5.15;3.25;;;;;;;;;;5029908;28;20465;-48
2021/08/28 09:11:56;;;;;;;7.05;4.53;;;;;;;;;;5036547;28;20525;-46
2021/08/28 09:14:23;;;;;;;5.07;4.03;;;;;;;;;;5036607;28;20446;-45
2021/08/28 09:16:50;;;;;;;4.00;2.90;;;;;;;;;;5035031;28;20041;-44
2021/08/28 09:19:22;;;;;;;4.40;2.90;;;;;;;;;;5035186;28;20041;-50
2021/08/28 09:21:49;;;;;;;3.97;2.80;;;;;;;;;;5032623;28;20060;-53
2021/08/28 09:24:16;;;;;;;3.92;2.88;;;;;;;;;;5030448;28;20046;-49
2021/08/28 09:26:44;;;;;;;4.38;2.85;;;;;;;;;;5038772;28;20049;-50
2021/08/28 09:29:12;;;;;;;3.47;2.30;;;;;;;;;;5052738;28;20043;-46
2021/08/28 09:31:40;;;;;;;3.33;2.63;;;;;;;;;;5038124;28;20521;-46
2021/08/28 09:34:13;;;;;;;4.20;2.40;;;;;;;;;;5036810;28;20407;-49
2021/08/28 09:36:40;;;;;;;3.20;2.22;;;;;;;;;;5036156;28;20045;-55
2021/08/28 09:39:07;;;;;;;3.72;2.30;;;;;;;;;;5039523;28;20053;-48
2021/08/28 09:41:34;;;;;;;5.18;2.85;;;;;;;;;;5037477;28;20125;-50
2021/08/28 09:44:07;;;;;;;5.47;2.85;;;;;;;;;;5046799;28;20474;-51
2021/08/28 09:46:34;;;;;;;;;;;;;;;;;;5038058;28;20045;-48
2021/08/28 09:49:01;;;;;;;3.55;2.20;;;;;;;;;;5033350;28;19929;-45
2021/08/28 09:51:38;;;;;;;3.80;2.40;;;;;;;;;;5036265;28;20037;-47
2021/08/28 09:54:05;;;;;;;3.40;2.00;;;;;;;;;;5035476;28;20144;-44
2021/08/28 09:56:31;;;;;;;2.63;2.00;;;;;;;;;;5034291;28;20689;-48
2021/08/28 09:58:58;;;;;;;2.50;1.75;;;;;;;;;;5033354;28;20513;-45
2021/08/28 10:01:26;;;;;;;3.72;2.10;;;;;;;;;;5033801;28;20045;-48
2021/08/28 10:03:59;;;;;;;3.60;2.40;;;;;;;;;;5029845;28;20124;-46
2021/08/28 10:06:27;;;;;;;3.15;2.20;;;;;;;;;;5024996;28;20083;-52
2021/08/28 10:08:54;;;;;;;3.35;2.20;;;;;;;;;;5034569;28;20044;-46
2021/08/28 10:11:21;;;;;;;3.03;2.30;;;;;;;;;;5032308;28;20053;-47
2021/08/28 10:13:48;;;;;;;3.03;2.30;;;;;;;;;;5028962;28;20137;-48
2021/08/28 10:16:15;;;;;;;3.70;2.60;;;;;;;;;;5034612;28;20410;-46
2021/08/28 10:18:47;;;;;;;4.72;2.40;;;;;;;;;;5029964;28;20585;-46
2021/08/28 10:21:14;;;;;;;3.00;2.25;;;;;;;;;;5040339;28;20057;-45
2021/08/28 10:23:41;;;;;;;4.00;2.55;;;;;;;;;;5031664;28;20046;-47
2021/08/28 10:26:10;;;;;;;3.63;2.38;;;;;;;;;;5040207;23;20021;-49
2021/08/28 10:28:38;;;;;;;4.55;2.50;;;;;;;;;;5025462;28;20056;-52
2021/08/28 10:31:06;;;;;;;2.72;2.20;;;;;;;;;;5032213;28;20048;-54
2021/08/28 10:33:33;;;;;;;3.63;2.40;;;;;;;;;;5022684;28;20042;-49
2021/08/28 10:35:59;;;;;;;3.58;2.22;;;;;;;;;;5009475;28;20136;-50
2021/08/28 10:38:27;;;;;;;2.50;1.92;;;;;;;;;;4993047;28;20045;-52
2021/08/28 10:40:55;;;;;;;2.92;2.10;;;;;;;;;;4993462;28;20480;-51
2021/08/28 10:43:22;;;;;;;2.90;1.75;;;;;;;;;;4977436;28;20038;-51
2021/08/28 10:45:49;;;;;;;2.88;1.80;;;;;;;;;;4994222;28;20137;-53
2021/08/28 10:49:00;;;;;;;3.17;1.50;;;;;;;;;;5003490;28;20047;-54
2021/08/28 10:51:35;;;;;;;2.00;1.40;;;;;;;;;;4977463;28;20092;-54
2021/08/28 10:54:12;;;;;;;2.92;1.60;;;;;;;;;;4976783;28;20534;-53
2021/08/28 10:56:43;;;;;;;1.63;1.38;;;;;;;;;;4995592;28;20046;-51
2021/08/28 10:59:18;;;;;;;2.13;1.17;;;;;;;;;;5014072;28;20133;-54
2021/08/28 11:01:50;;;;;;;2.03;1.30;;;;;;;;;;5033287;28;20044;-55
2021/08/28 11:04:17;;;;;;;;;;;;;;;;;;5022494;28;20121;-48
2021/08/28 11:06:44;;;;;;;1.70;1.13;;;;;;;;;;4994061;28;19922;-49
2021/08/28 11:09:12;;;;;;;1.17;1.00;;;;;;;;;;4993281;28;20049;-51
2021/08/28 11:11:44;;;;;;;1.63;1.13;;;;;;;;;;4994363;28;20510;-51
2021/08/28 11:14:12;;;;;;;1.52;1.05;;;;;;;;;;4993999;28;20419;-50
2021/08/28 11:16:39;;;;;;;1.50;1.20;;;;;;;;;;4994026;28;20057;-51
2021/08/28 11:19:06;;;;;;;1.67;1.30;;;;;;;;;;5009585;28;20455;-47
2021/08/28 11:21:43;;;;;;;2.25;0.93;;;;;;;;;;5009778;28;20070;-55
2021/08/28 11:24:17;;;;;;;1.20;0.80;;;;;;;;;;4996949;28;20050;-48
2021/08/28 11:26:47;;;;;;;1.17;0.90;;;;;;;;;;4996141;28;20038;-51
2021/08/28 11:29:23;;;;;;;4.70;1.13;;;;;;;;;;5006036;28;20054;-53
2021/08/28 11:32:12;;;;;;;4.07;1.08;;;;;;;;;;5012501;28;20096;-51
2021/08/28 11:34:42;;;;;;;3.35;1.30;;;;;;;;;;5012169;28;20472;-51
2021/08/28 11:37:28;;;;;;;1.70;0.80;;;;;;;;;;5006780;28;20457;-51
2021/08/28 11:39:57;;;;;;;1.83;0.95;;;;;;;;;;5005912;28;20125;-50
2021/08/28 11:42:25;;;;;;;1.70;1.00;;;;;;;;;;5009938;28;20049;-52
2021/08/28 11:44:53;;;;;;;2.50;0.90;;;;;;;;;;4993247;28;20048;-52
2021/08/28 11:47:21;;;;;;;2.38;0.90;;;;;;;;;;4997459;28;20478;-54
2021/08/28 11:49:51;;;;;;;1.10;1.00;;;;;;;;;;4993352;28;20038;-53
2021/08/28 11:52:18;;;;;;;2.30;1.17;;;;;;;;;;4997269;28;20041;-50
2021/08/28 11:54:46;;;;;;;1.60;1.08;;;;;;;;;;5008196;28;20380;-54
2021/08/28 11:57:13;;;;;;;1.08;0.90;;;;;;;;;;5002769;28;20430;-53
2021/08/28 11:59:40;;;;;;;2.53;1.20;;;;;;;;;;5013033;28;20054;-50
2021/08/28 12:02:07;;;;;;;2.13;0.90;;;;;;;;;;5001272;28;20049;-55
2021/08/28 12:04:35;;;;;;;1.20;0.90;;;;;;;;;;5001909;28;20048;-52
2021/08/28 12:07:03;;;;;;;1.67;1.00;;;;;;;;;;5012566;28;20126;-50
2021/08/28 12:09:30;;;;;;;2.63;0.90;;;;;;;;;;5007187;28;20385;-51
2021/08/28 12:11:57;;;;;;;2.20;1.05;;;;;;;;;;5004864;28;20050;-53
2021/08/28 12:14:26;;;;;;;1.13;0.90;;;;;;;;;;5011704;28;20056;-51
2021/08/28 12:16:53;;;;;;;1.48;0.90;;;;;;;;;;5020644;28;20204;-53
2021/08/28 12:19:21;;;;;;;1.88;1.05;;;;;;;;;;5008430;28;20593;-54
2021/08/28 12:21:50;;;;;;;1.80;1.30;;;;;;;;;;5005356;28;20068;-53
2021/08/28 12:24:22;;;;;;;1.40;0.95;;;;;;;;;;4999329;28;20789;-54
2021/08/28 12:26:53;;;;;;;2.22;1.40;;;;;;;;;;5000698;28;20038;-51
2021/08/28 12:29:21;;;;;;;1.02;0.93;;;;;;;;;;4998646;28;20048;-53
2021/08/28 12:31:52;;;;;;;1.50;1.00;;;;;;;;;;5005499;28;20356;-51
2021/08/28 12:34:20;;;;;;;1.25;0.90;;;;;;;;;;4984254;28;20139;-49
2021/08/28 12:36:47;;;;;;;1.38;1.00;;;;;;;;;;5004346;28;20089;-54
2021/08/28 12:39:14;;;;;;;1.00;0.70;;;;;;;;;;5001494;28;20060;-52
2021/08/28 12:41:41;;;;;;;0.95;0.70;;;;;;;;;;5004200;28;20042;-56
2021/08/28 12:44:09;;;;;;;0.77;0.70;;;;;;;;;;5003005;28;20100;-55
2021/08/28 12:46:37;;;;;;;1.02;0.90;;;;;;;;;;5002846;28;20041;-56
2021/08/28 12:49:11;;;;;;;0.60;0.60;;;;;;;;;;5004868;28;20487;-55
2021/08/28 12:51:46;;;;;;;0.70;0.70;;;;;;;;;;5012070;28;20064;-57
2021/08/28 12:54:17;;;;;;;2.15;0.80;;;;;;;;;;5007806;28;20041;-56
2021/08/28 12:56:48;;;;;;;1.23;0.75;;;;;;;;;;5001731;28;20566;-58
2021/08/28 12:59:19;;;;;;;1.30;0.82;;;;;;;;;;4998547;28;20589;-56
2021/08/28 13:01:48;;;;;;;0.98;0.68;;;;;;;;;;5011062;28;20042;-57
2021/08/28 13:04:15;;;;;;;1.23;0.65;;;;;;;;;;5006173;28;20818;-58
2021/08/28 13:06:42;;;;;;;0.85;0.75;;;;;;;;;;5004817;28;20042;-57
2021/08/28 13:09:17;;;;;;;0.80;0.80;;;;;;;;;;4999127;28;20412;-56
2021/08/28 13:11:54;;;;;;;0.77;0.73;;;;;;;;;;5013349;28;20081;-56
2021/08/28 13:14:21;;;;;;;1.63;0.90;;;;;;;;;;5003869;28;20048;-57
2021/08/28 13:16:51;;;;;;;1.00;0.90;;;;;;;;;;5030920;28;20526;-56
2021/08/28 13:19:19;;;;;;;1.73;0.90;;;;;;;;;;5028671;28;20120;-56
2021/08/28 13:21:47;;;;;;;1.73;1.00;;;;;;;;;;5020558;28;20043;-57
2021/08/28 13:24:15;;;;;;;1.00;0.82;;;;;;;;;;5010804;28;20065;-56
2021/08/28 13:26:58;;;;;;;1.55;0.88;;;;;;;;;;5009895;28;20084;-56
2021/08/28 13:29:29;;;;;;;1.17;1.00;;;;;;;;;;5017027;28;20041;-57
2021/08/28 13:32:06;;;;;;;1.20;0.82;;;;;;;;;;5014999;28;20046;-57
2021/08/28 13:34:40;;;;;;;1.13;0.80;;;;;;;;;;5002901;28;20133;-57
2021/08/28 13:37:09;;;;;;;0.70;0.68;;;;;;;;;;5004885;28;20499;-56
2021/08/28 13:39:36;;;;;;;1.10;0.85;;;;;;;;;;5008476;28;20045;-57
2021/08/28 13:42:03;;;;;;;1.52;1.00;;;;;;;;;;5015145;28;20825;-57
2021/08/28 13:44:31;;;;;;;1.00;0.90;;;;;;;;;;5017017;28;20048;-58
2021/08/28 13:46:58;;;;;;;1.48;0.90;;;;;;;;;;5000417;28;20065;-58
2021/08/28 13:49:25;;;;;;;2.63;1.00;;;;;;;;;;4994536;28;20100;-56
2021/08/28 13:51:52;;;;;;;1.50;1.00;;;;;;;;;;5012128;28;20049;-57
2021/08/28 13:54:19;;;;;;;3.33;1.60;;;;;;;;;;5002459;28;20416;-57
2021/08/28 13:56:46;;;;;;;2.08;1.23;;;;;;;;;;4998525;28;20061;-54
2021/08/28 13:59:13;;;;;;;1.90;1.20;;;;;;;;;;5013602;28;20133;-56
2021/08/28 14:01:41;;;;;;;2.72;1.40;;;;;;;;;;5031096;28;20478;-54
2021/08/28 14:04:08;;;;;;;1.50;1.30;;;;;;;;;;5016374;28;20454;-55
2021/08/28 14:06:35;;;;;;;1.40;1.10;;;;;;;;;;5017283;28;20128;-56
2021/08/28 14:09:03;;;;;;;2.90;1.50;;;;;;;;;;5002591;28;20042;-55
2021/08/28 14:11:30;;;;;;;2.53;1.30;;;;;;;;;;5009407;28;20529;-55
2021/08/28 14:13:56;;;;;;;2.00;1.30;;;;;;;;;;5001505;28;20454;-56
2021/08/28 14:16:23;;;;;;;3.90;1.90;;;;;;;;;;5024236;28;20053;-54
2021/08/28 14:18:50;;;;;;;3.40;1.50;;;;;;;;;;4996105;28;20447;-54
2021/08/28 14:21:17;;;;;;;1.45;1.20;;;;;;;;;;5011512;28;20045;-47
2021/08/28 14:23:45;;;;;;;1.20;1.00;;;;;;;;;;5010134;28;20049;-48
2021/08/28 14:26:12;;;;;;;2.08;1.35;;;;;;;;;;5018757;28;20128;-51
2021/08/28 14:28:39;;;;;;;3.20;1.42;;;;;;;;;;5018193;28;20042;-53
2021/08/28 14:31:06;;;;;;;1.40;1.23;;;;;;;;;;5012124;28;20038;-51
2021/08/28 14:33:32;;;;;;;2.45;1.20;;;;;;;;;;5020089;28;20772;-55
2021/08/28 14:35:59;;;;;;;1.30;1.13;;;;;;;;;;5019400;28;20084;-55
2021/08/28 14:38:26;;;;;;;1.95;1.38;;;;;;;;;;5024103;28;20479;-54
2021/08/28 14:40:53;;;;;;;2.05;1.45;;;;;;;;;;5012427;28;20041;-55
2021/08/28 14:43:19;;;;;;;1.38;1.08;;;;;;;;;;5018777;28;20041;-54
2021/08/28 14:45:46;;;;;;;1.35;1.10;;;;;;;;;;5023101;28;20499;-55
2021/08/28 14:48:13;;;;;;;1.73;1.20;;;;;;;;;;5020359;28;20045;-55
2021/08/28 14:50:40;;;;;;;1.55;1.13;;;;;;;;;;5018090;28;20054;-56
2021/08/28 14:53:11;;;;;;;2.22;1.13;;;;;;;;;;5005082;28;20042;-58
2021/08/28 14:55:39;;;;;;;1.90;1.27;;;;;;;;;;5034135;28;20119;-56
2021/08/28 14:58:06;;;;;;;2.05;1.38;;;;;;;;;;5033410;28;20123;-58
2021/08/28 15:00:33;;;;;;;2.60;1.55;;;;;;;;;;5026843;28;20054;-55
2021/08/28 15:03:00;;;;;;;1.77;1.20;;;;;;;;;;5030383;28;20384;-55
2021/08/28 15:05:31;;;;;;;1.67;1.13;;;;;;;;;;5009015;28;20056;-49
2021/08/28 15:07:58;;;;;;;1.30;1.20;;;;;;;;;;5014986;28;20600;-49